Airport View

Enter AWOS ICAO identifier for current METAR.

ex. KFNL

KCMD 202235Z AUTO 00000KT 10SM CLR 25/15 A3015 RMK AO2 T02460145

20 Oct 2020 22:47

Frequency: 124.175

Phone: 256-775-7476

Other Area AWOS: KHSV - KDCU - K8A0 - KJFX

TAF AMD KHSV 201916Z 2019/2118 14005KT P6SM SCT200 FM211200 13004KT P6SM BKN040